Time;durP1;ratioP1;P1;durP2;ratioP2;P2;SDS_P1;SDS_P2;PMS_P1;PMS_P2;Temp;Humidity;BMP_temperature;BMP_pressure;BME280_temperature;BME280_humidity;BME280_pressure;Samples;Min_cycle;Max_cycle;Signal;HPM_P1;HPM_P2
2022/03/31 00:01:37;;;;;;;3.67;1.58;;;20.10;69.60;;;;;;7932317;28;20171;-51
2022/03/31 00:05:23;;;;;;;2.10;1.58;;;20.10;69.50;;;;;;7931832;28;20203;-50
2022/03/31 00:09:08;;;;;;;2.60;1.70;;;20.10;69.50;;;;;;7931888;28;20277;-50
2022/03/31 00:12:55;;;;;;;3.30;1.77;;;20.10;69.60;;;;;;7933684;28;20233;-53
2022/03/31 00:16:41;;;;;;;3.22;1.73;;;20.00;69.50;;;;;;7943019;27;20553;-50
2022/03/31 00:20:27;;;;;;;2.00;1.38;;;20.00;69.40;;;;;;7942657;28;20263;-51
2022/03/31 00:24:12;;;;;;;2.40;1.80;;;20.00;69.50;;;;;;7942665;27;20195;-51
2022/03/31 00:27:58;;;;;;;2.40;1.52;;;19.90;69.50;;;;;;7942389;28;20244;-53
2022/03/31 00:31:43;;;;;;;2.50;1.70;;;19.90;69.50;;;;;;7942186;27;20172;-51
2022/03/31 00:35:29;;;;;;;4.72;1.48;;;19.90;69.50;;;;;;7942231;27;20196;-50
2022/03/31 00:39:32;;;;;;;2.38;1.67;;;19.80;69.50;;;;;;7942017;27;20255;-51
2022/03/31 00:43:17;;;;;;;2.47;1.50;;;19.80;69.50;;;;;;7942227;28;20207;-51
2022/03/31 00:47:03;;;;;;;3.13;1.50;;;19.80;69.50;;;;;;7942126;28;20276;-52
2022/03/31 00:50:49;;;;;;;1.95;1.75;;;19.80;69.50;;;;;;7941643;27;20183;-53
2022/03/31 00:54:35;;;;;;;1.75;1.50;;;19.70;69.50;;;;;;7941957;27;20685;-51
2022/03/31 00:58:22;;;;;;;2.03;1.30;;;19.70;69.60;;;;;;7941915;28;20637;-50
2022/03/31 01:02:08;;;;;;;2.13;1.60;;;19.70;69.50;;;;;;7941136;28;20286;-50
2022/03/31 01:05:54;;;;;;;2.95;1.73;;;19.70;69.50;;;;;;7941783;28;20206;-51
2022/03/31 01:09:40;;;;;;;1.85;1.25;;;19.60;70.00;;;;;;7941552;28;20214;-50
2022/03/31 01:13:26;;;;;;;3.40;1.80;;;19.60;70.40;;;;;;7941637;28;20737;-51
2022/03/31 01:17:11;;;;;;;3.08;1.75;;;19.60;69.50;;;;;;7941940;28;20176;-51
2022/03/31 01:20:56;;;;;;;4.03;1.80;;;19.60;69.60;;;;;;7941413;27;20168;-52
2022/03/31 01:24:43;;;;;;;2.95;1.63;;;19.50;69.50;;;;;;7938965;27;20207;-50
2022/03/31 01:28:29;;;;;;;2.75;1.95;;;19.50;69.50;;;;;;7936463;28;20263;-52
2022/03/31 01:32:14;;;;;;;2.65;1.77;;;19.50;69.50;;;;;;7936264;28;20262;-50
2022/03/31 01:36:04;;;;;;;4.80;1.90;;;19.50;69.50;;;;;;7936504;28;20204;-53
2022/03/31 01:39:49;;;;;;;3.03;1.67;;;19.40;69.40;;;;;;7936014;28;20203;-51
2022/03/31 01:43:35;;;;;;;2.17;1.52;;;19.40;69.50;;;;;;7936162;28;20196;-50
2022/03/31 01:47:20;;;;;;;1.80;1.52;;;19.40;69.50;;;;;;7936561;28;20207;-50
2022/03/31 01:51:07;;;;;;;4.93;2.05;;;19.40;69.50;;;;;;7935640;28;20183;-53
2022/03/31 01:54:52;;;;;;;2.75;1.52;;;19.40;69.50;;;;;;7935944;28;20192;-51
2022/03/31 01:58:38;;;;;;;2.40;1.90;;;19.40;69.50;;;;;;7935972;28;20227;-50
2022/03/31 02:02:23;;;;;;;2.63;1.83;;;19.30;69.40;;;;;;7935561;28;20320;-50
2022/03/31 02:06:09;;;;;;;3.25;1.80;;;19.30;69.50;;;;;;7935492;28;20200;-51
2022/03/31 02:09:54;;;;;;;4.35;2.22;;;19.30;69.50;;;;;;7935083;28;20619;-50
2022/03/31 02:13:40;;;;;;;3.17;2.10;;;19.30;69.50;;;;;;7935307;28;20900;-51
2022/03/31 02:17:25;;;;;;;2.45;1.85;;;19.30;69.50;;;;;;7935064;28;20187;-52
2022/03/31 02:21:11;;;;;;;2.40;1.95;;;19.30;69.50;;;;;;7934757;28;20210;-53
2022/03/31 02:24:57;;;;;;;2.50;1.80;;;19.30;69.50;;;;;;7934712;28;20244;-52
2022/03/31 02:28:42;;;;;;;2.35;2.03;;;19.20;69.30;;;;;;7934829;28;20196;-50
2022/03/31 02:32:28;;;;;;;3.85;2.30;;;19.20;69.30;;;;;;7934653;28;20171;-51
2022/03/31 02:36:13;;;;;;;3.25;2.35;;;19.20;69.30;;;;;;7934175;27;20192;-53
2022/03/31 02:39:59;;;;;;;3.78;2.28;;;19.20;69.40;;;;;;7934152;28;20553;-50
2022/03/31 02:43:44;;;;;;;2.67;2.10;;;19.20;69.30;;;;;;7934196;28;20621;-50
2022/03/31 02:47:30;;;;;;;3.85;2.45;;;19.20;69.40;;;;;;7934109;28;20204;-51
2022/03/31 02:51:15;;;;;;;2.92;2.35;;;19.10;69.20;;;;;;7933902;28;20191;-50
2022/03/31 02:59:07;;;;;;;4.32;2.45;;;19.10;69.20;;;;;;7933721;28;20653;-53
2022/03/31 03:02:53;;;;;;;5.35;2.95;;;19.10;69.20;;;;;;7933674;28;20176;-51
2022/03/31 03:06:39;;;;;;;3.67;2.50;;;19.10;69.20;;;;;;7933534;28;20279;-50
2022/03/31 03:10:25;;;;;;;4.55;2.83;;;19.10;69.20;;;;;;7933426;28;20191;-51
2022/03/31 03:14:12;;;;;;;3.22;2.33;;;19.10;69.20;;;;;;7933304;28;20188;-51
2022/03/31 03:17:58;;;;;;;4.43;2.67;;;19.10;69.20;;;;;;7933278;28;20172;-50
2022/03/31 03:21:43;;;;;;;4.38;2.78;;;19.10;69.20;;;;;;7932922;28;20218;-50
2022/03/31 03:25:29;;;;;;;7.13;2.92;;;19.10;69.20;;;;;;7933084;28;20279;-51
2022/03/31 03:29:15;;;;;;;4.97;3.10;;;19.10;69.20;;;;;;7932851;28;20204;-50
2022/03/31 03:33:00;;;;;;;5.20;2.97;;;19.10;69.20;;;;;;7933207;28;20251;-51
2022/03/31 03:36:46;;;;;;;3.53;2.95;;;19.10;69.10;;;;;;7933112;28;20180;-50
2022/03/31 03:40:31;;;;;;;3.30;2.78;;;19.10;69.10;;;;;;7932849;28;20259;-50
2022/03/31 03:44:17;;;;;;;6.38;4.00;;;19.10;69.10;;;;;;7933082;28;20608;-54
2022/03/31 03:48:03;;;;;;;5.00;3.30;;;19.20;69.10;;;;;;7932269;28;20203;-50
2022/03/31 03:51:49;;;;;;;6.72;4.43;;;19.20;69.00;;;;;;7932283;28;20544;-50
2022/03/31 03:55:36;;;;;;;7.40;4.47;;;19.30;68.80;;;;;;7932503;28;20575;-50
2022/03/31 03:59:22;;;;;;;6.93;4.82;;;19.30;68.40;;;;;;7932204;28;20176;-52
2022/03/31 04:03:08;;;;;;;9.07;5.75;;;19.30;67.90;;;;;;7932265;28;20684;-51
2022/03/31 04:06:53;;;;;;;9.45;5.10;;;19.40;67.90;;;;;;7929843;28;20732;-50
2022/03/31 04:10:39;;;;;;;17.63;6.20;;;19.40;67.70;;;;;;7930910;28;20270;-50
2022/03/31 04:14:24;;;;;;;10.38;5.72;;;19.40;67.40;;;;;;7931091;28;20214;-51
2022/03/31 04:18:10;;;;;;;10.52;5.82;;;19.40;67.60;;;;;;7930743;28;20827;-53
2022/03/31 04:21:55;;;;;;;11.20;5.00;;;19.40;67.10;;;;;;7930531;28;20175;-50
2022/03/31 04:25:41;;;;;;;6.82;5.28;;;19.50;66.80;;;;;;7930982;28;20200;-52
2022/03/31 04:29:27;;;;;;;13.60;6.22;;;19.50;66.50;;;;;;7930536;28;20238;-50
2022/03/31 04:33:13;;;;;;;11.45;5.22;;;19.60;66.70;;;;;;7931065;28;20202;-51
2022/03/31 04:36:58;;;;;;;10.90;5.55;;;19.60;66.30;;;;;;7922719;28;20279;-51
2022/03/31 04:40:44;;;;;;;9.10;5.93;;;19.60;65.80;;;;;;7899148;28;20844;-55
2022/03/31 04:44:29;;;;;;;21.35;6.15;;;19.60;66.00;;;;;;7916988;28;20251;-50
2022/03/31 04:48:14;;;;;;;11.38;6.50;;;19.70;66.60;;;;;;7929760;28;20207;-53
2022/03/31 04:52:01;;;;;;;13.40;5.72;;;19.70;65.80;;;;;;7930561;28;20232;-53
2022/03/31 04:55:47;;;;;;;10.77;6.30;;;19.80;65.60;;;;;;7930479;28;20192;-50
2022/03/31 04:59:32;;;;;;;23.90;5.65;;;19.80;65.20;;;;;;7931548;28;20184;-51
2022/03/31 05:03:18;;;;;;;20.48;7.25;;;19.80;65.40;;;;;;7936418;28;20204;-51
2022/03/31 05:07:04;;;;;;;12.90;7.18;;;19.80;64.80;;;;;;7936171;28;20187;-51
2022/03/31 05:10:50;;;;;;;9.57;6.72;;;19.90;64.20;;;;;;7936107;28;20168;-51
2022/03/31 05:14:35;;;;;;;18.35;7.40;;;19.90;64.10;;;;;;7936159;28;20661;-55
2022/03/31 05:18:21;;;;;;;15.82;7.45;;;19.90;64.40;;;;;;7935922;28;20176;-50
2022/03/31 05:22:07;;;;;;;15.77;6.80;;;19.90;64.40;;;;;;7935726;28;20180;-50
2022/03/31 05:25:52;;;;;;;14.90;6.82;;;19.90;64.00;;;;;;7935914;28;20282;-51
2022/03/31 05:29:37;;;;;;;14.95;6.22;;;20.00;64.00;;;;;;7935695;28;20639;-53
2022/03/31 05:33:23;;;;;;;11.45;5.20;;;20.10;65.10;;;;;;7935427;27;20212;-50
2022/03/31 05:37:08;;;;;;;11.27;4.72;;;20.20;66.20;;;;;;7925026;28;20271;-50
2022/03/31 05:40:54;;;;;;;14.70;4.47;;;20.30;66.50;;;;;;7903527;28;20230;-51
2022/03/31 05:44:40;;;;;;;17.98;4.85;;;20.50;66.70;;;;;;7903584;28;20199;-50
2022/03/31 05:48:26;;;;;;;14.88;4.20;;;20.60;66.60;;;;;;7902932;28;20213;-50
2022/03/31 05:52:11;;;;;;;10.60;4.32;;;20.80;66.50;;;;;;7914265;28;20704;-51
2022/03/31 05:55:57;;;;;;;9.95;4.60;;;20.80;66.40;;;;;;7934961;28;20693;-51
2022/03/31 05:59:43;;;;;;;10.95;4.43;;;21.00;66.40;;;;;;7934343;28;20210;-50
2022/03/31 06:03:28;;;;;;;9.80;4.97;;;21.10;66.40;;;;;;7934660;28;20955;-51
2022/03/31 06:07:14;;;;;;;7.78;4.40;;;21.10;66.40;;;;;;7934446;28;20554;-50
2022/03/31 06:10:59;;;;;;;8.75;4.18;;;21.20;66.30;;;;;;7933977;28;20172;-51
2022/03/31 06:14:45;;;;;;;8.85;4.65;;;21.30;66.30;;;;;;7934453;28;20764;-52
2022/03/31 06:18:30;;;;;;;8.73;4.90;;;21.30;66.20;;;;;;7933917;28;20182;-50
2022/03/31 06:22:16;;;;;;;9.55;4.72;;;21.40;66.10;;;;;;7921720;28;20231;-52
2022/03/31 06:26:01;;;;;;;13.57;4.72;;;21.40;66.10;;;;;;7902182;28;20224;-51
2022/03/31 06:29:48;;;;;;;7.00;5.00;;;21.50;66.10;;;;;;7901992;28;20197;-51
2022/03/31 06:33:34;;;;;;;7.40;5.05;;;21.50;66.00;;;;;;7902063;28;20229;-51
2022/03/31 06:37:20;;;;;;;10.82;6.38;;;21.50;66.10;;;;;;7914791;28;20180;-50
2022/03/31 06:41:06;;;;;;;16.83;4.93;;;21.50;65.10;;;;;;7933401;28;20652;-50
2022/03/31 06:44:51;;;;;;;12.48;5.00;;;21.50;66.00;;;;;;7933357;28;20529;-53
2022/03/31 06:48:38;;;;;;;12.93;5.13;;;21.50;66.10;;;;;;7930250;28;20322;-50
2022/03/31 06:52:23;;;;;;;13.70;5.90;;;21.40;66.40;;;;;;7919002;28;20200;-52
2022/03/31 06:56:13;;;;;;;11.20;5.40;;;21.40;66.10;;;;;;7901469;28;20279;-50
2022/03/31 06:59:58;;;;;;;11.73;4.82;;;21.50;66.40;;;;;;7901110;28;20173;-50
2022/03/31 07:03:44;;;;;;;10.50;5.30;;;21.50;66.40;;;;;;7901045;28;20705;-53
2022/03/31 07:07:29;;;;;;;15.15;5.40;;;21.50;66.40;;;;;;7915952;28;20211;-50
2022/03/31 07:11:16;;;;;;;15.57;5.03;;;21.50;66.40;;;;;;7932613;28;20183;-50
2022/03/31 07:15:01;;;;;;;11.13;5.30;;;21.50;66.40;;;;;;7932686;28;20293;-51
2022/03/31 07:18:47;;;;;;;12.68;5.30;;;21.50;66.40;;;;;;7932327;28;20183;-51
2022/03/31 07:22:33;;;;;;;10.75;5.50;;;21.60;66.50;;;;;;7915443;28;20633;-52
2022/03/31 07:26:19;;;;;;;8.80;5.00;;;21.60;66.60;;;;;;7900245;28;20272;-52
2022/03/31 07:30:05;;;;;;;10.13;4.88;;;21.70;66.50;;;;;;7900305;28;20697;-51
2022/03/31 07:33:51;;;;;;;12.27;6.32;;;21.70;66.50;;;;;;7900458;28;20734;-51
2022/03/31 07:37:36;;;;;;;16.80;5.85;;;21.80;66.00;;;;;;7916643;28;20229;-51
2022/03/31 07:41:22;;;;;;;14.00;5.88;;;21.80;65.80;;;;;;7931604;28;20180;-50
2022/03/31 07:45:09;;;;;;;11.23;5.57;;;21.80;66.00;;;;;;7931720;28;20208;-53
2022/03/31 07:48:54;;;;;;;10.93;5.85;;;21.90;65.90;;;;;;7915683;28;20255;-50
2022/03/31 07:52:41;;;;;;;11.23;5.65;;;21.90;65.80;;;;;;7916985;28;20188;-50
2022/03/31 07:56:27;;;;;;;7.28;5.30;;;22.00;65.90;;;;;;7931289;28;20184;-53
2022/03/31 08:00:14;;;;;;;8.13;5.45;;;22.00;65.90;;;;;;7931038;28;20203;-51
2022/03/31 08:03:59;;;;;;;10.05;5.50;;;22.00;65.80;;;;;;7931238;28;20225;-50
2022/03/31 08:07:45;;;;;;;10.38;5.38;;;22.00;65.80;;;;;;7912955;28;20294;-52
2022/03/31 08:11:31;;;;;;;10.77;5.53;;;22.00;65.80;;;;;;7899375;28;20180;-50
2022/03/31 08:15:17;;;;;;;9.40;5.53;;;22.00;65.80;;;;;;7899284;28;20192;-50
2022/03/31 08:19:03;;;;;;;8.25;5.88;;;22.00;65.90;;;;;;7899360;28;20180;-51
2022/03/31 08:22:49;;;;;;;8.50;5.53;;;21.90;66.10;;;;;;7903642;28;20288;-50
2022/03/31 08:26:34;;;;;;;9.25;5.55;;;21.90;66.10;;;;;;7899256;28;20177;-50
2022/03/31 08:30:21;;;;;;;8.55;5.60;;;21.90;66.20;;;;;;7899076;28;20226;-52
2022/03/31 08:34:07;;;;;;;8.50;5.60;;;21.80;66.30;;;;;;7900154;28;20238;-50
2022/03/31 08:37:52;;;;;;;15.52;5.40;;;21.80;66.20;;;;;;7905397;28;20228;-51
2022/03/31 08:41:38;;;;;;;10.32;5.47;;;21.80;66.30;;;;;;7905597;28;20184;-50
2022/03/31 08:45:24;;;;;;;8.75;5.53;;;21.80;66.40;;;;;;7905642;28;20268;-51
2022/03/31 08:49:09;;;;;;;8.02;5.40;;;21.90;66.40;;;;;;7899517;28;20215;-50
2022/03/31 08:52:55;;;;;;;15.30;5.35;;;21.90;66.40;;;;;;7905137;28;21106;-52
2022/03/31 08:56:41;;;;;;;8.05;5.20;;;21.80;66.40;;;;;;7905036;28;20272;-50
2022/03/31 09:00:26;;;;;;;10.00;5.70;;;21.80;66.40;;;;;;7904764;28;20535;-50
2022/03/31 09:04:24;;;;;;;8.82;5.75;;;21.80;66.30;;;;;;7905498;28;20192;-50
2022/03/31 09:08:12;;;;;;;10.15;5.68;;;21.80;66.30;;;;;;7926524;28;20204;-52
2022/03/31 09:11:57;;;;;;;11.15;5.43;;;21.80;66.30;;;;;;7934692;28;20176;-53
2022/03/31 09:15:50;;;;;;;9.82;5.57;;;21.80;66.30;;;;;;7936202;28;20240;-50
2022/03/31 09:19:36;;;;;;;8.77;5.30;;;21.80;66.30;;;;;;7933206;28;20187;-51
2022/03/31 09:23:24;;;;;;;9.95;5.65;;;21.70;66.30;;;;;;7936042;28;20750;-53
2022/03/31 09:27:09;;;;;;;9.80;6.25;;;21.70;66.40;;;;;;7935634;28;20195;-52
2022/03/31 09:30:56;;;;;;;20.33;6.80;;;21.70;65.70;;;;;;7935570;28;20168;-51
2022/03/31 09:34:47;;;;;;;10.50;5.82;;;21.60;66.00;;;;;;7907256;28;20205;-51
2022/03/31 09:38:37;;;;;;;12.23;6.00;;;21.60;66.10;;;;;;7903580;28;20210;-55
2022/03/31 09:42:23;;;;;;;18.80;6.50;;;21.70;66.20;;;;;;7903571;28;20207;-50
2022/03/31 09:46:29;;;;;;;11.07;5.78;;;21.70;66.30;;;;;;7902037;28;20196;-51
2022/03/31 09:50:15;;;;;;;13.50;5.50;;;21.70;66.30;;;;;;7903025;28;20204;-51
2022/03/31 09:54:02;;;;;;;14.57;5.30;;;21.70;66.00;;;;;;7934580;28;20838;-50
2022/03/31 09:57:47;;;;;;;12.82;6.72;;;21.70;66.20;;;;;;7934400;28;20171;-53
2022/03/31 10:01:35;;;;;;;10.38;6.05;;;21.70;64.00;;;;;;7934538;28;20664;-50
2022/03/31 10:05:21;;;;;;;14.20;6.38;;;21.70;65.80;;;;;;7934401;28;20581;-51
2022/03/31 10:09:08;;;;;;;11.50;5.50;;;21.70;64.20;;;;;;7902103;28;20196;-51
2022/03/31 10:13:03;;;;;;;11.82;5.45;;;21.80;65.60;;;;;;7902640;28;20267;-53
2022/03/31 10:16:58;;;;;;;11.48;4.80;;;21.80;65.80;;;;;;7902562;28;20164;-53
2022/03/31 10:20:56;;;;;;;12.73;5.25;;;21.80;65.50;;;;;;7905921;28;20179;-55
2022/03/31 10:24:42;;;;;;;9.68;5.15;;;21.80;65.60;;;;;;7934089;28;20192;-51
2022/03/31 10:28:27;;;;;;;10.35;5.28;;;21.90;65.50;;;;;;7929300;28;20206;-52
2022/03/31 10:32:25;;;;;;;15.70;5.53;;;21.90;66.10;;;;;;7932892;28;20630;-51
2022/03/31 10:36:15;;;;;;;10.20;5.43;;;22.00;65.20;;;;;;7925061;28;20199;-51
2022/03/31 10:40:04;;;;;;;19.98;5.45;;;22.00;65.10;;;;;;7901291;28;20184;-51
2022/03/31 10:43:52;;;;;;;9.32;5.05;;;22.00;65.00;;;;;;7901343;28;20192;-50
2022/03/31 10:47:40;;;;;;;11.85;4.97;;;22.00;65.00;;;;;;7901020;28;20188;-53
2022/03/31 10:51:37;;;;;;;10.20;5.13;;;22.00;65.20;;;;;;7912036;28;20191;-56
2022/03/31 10:55:33;;;;;;;9.05;5.72;;;22.00;65.20;;;;;;7914399;28;20208;-50
2022/03/31 10:59:19;;;;;;;13.43;5.70;;;22.00;65.20;;;;;;7900859;28;20181;-50
2022/03/31 11:03:05;;;;;;;12.38;6.22;;;22.00;65.00;;;;;;7901434;28;20203;-51
2022/03/31 11:06:52;;;;;;;10.57;5.40;;;22.00;65.20;;;;;;7914814;28;20574;-53
2022/03/31 11:10:42;;;;;;;9.80;5.35;;;22.00;65.20;;;;;;7929422;28;20693;-50
2022/03/31 11:14:28;;;;;;;10.63;4.93;;;22.00;65.40;;;;;;7932537;28;20676;-56
2022/03/31 11:18:13;;;;;;;11.82;5.53;;;22.10;65.50;;;;;;7932327;28;20573;-50
2022/03/31 11:21:59;;;;;;;7.65;4.93;;;22.10;65.50;;;;;;7916612;28;20969;-54
2022/03/31 11:25:44;;;;;;;8.90;5.43;;;22.10;65.50;;;;;;7900508;28;20203;-53
2022/03/31 11:29:30;;;;;;;10.85;5.40;;;22.20;65.40;;;;;;7912609;28;20301;-51
2022/03/31 11:33:16;;;;;;;13.98;4.88;;;22.10;65.00;;;;;;7931751;28;20200;-54
2022/03/31 11:37:02;;;;;;;12.73;5.07;;;22.10;65.00;;;;;;7911871;28;20597;-54
2022/03/31 11:40:49;;;;;;;12.40;4.78;;;22.10;65.00;;;;;;7899986;28;20173;-51
2022/03/31 11:44:40;;;;;;;8.73;5.35;;;22.10;65.20;;;;;;7900402;28;20243;-51
2022/03/31 11:48:34;;;;;;;7.18;4.70;;;22.00;64.70;;;;;;7899708;28;20199;-53
2022/03/31 11:52:28;;;;;;;22.17;5.05;;;21.90;65.20;;;;;;7918694;28;20208;-51
2022/03/31 11:56:21;;;;;;;10.13;4.97;;;21.90;65.50;;;;;;7931303;28;20218;-53
2022/03/31 12:00:12;;;;;;;11.18;5.43;;;21.90;65.80;;;;;;7931179;28;20716;-53
2022/03/31 12:03:58;;;;;;;12.50;5.38;;;21.80;66.00;;;;;;7931323;28;20199;-54
2022/03/31 12:07:44;;;;;;;10.02;4.78;;;21.80;66.10;;;;;;7908438;28;20662;-51
2022/03/31 12:11:29;;;;;;;8.75;5.30;;;21.90;66.10;;;;;;7896634;28;20194;-51
2022/03/31 12:15:29;;;;;;;11.52;4.93;;;21.80;66.10;;;;;;7898845;28;20280;-53
2022/03/31 12:19:14;;;;;;;7.75;5.38;;;21.80;66.10;;;;;;7899129;28;20184;-50
2022/03/31 12:23:00;;;;;;;10.18;5.25;;;21.80;66.10;;;;;;7924537;28;20271;-55
2022/03/31 12:26:57;;;;;;;18.30;5.18;;;21.80;66.10;;;;;;7930583;28;20652;-54
2022/03/31 12:30:48;;;;;;;8.35;5.13;;;21.80;66.20;;;;;;7930689;27;20621;-51
2022/03/31 12:34:37;;;;;;;10.23;5.28;;;21.80;66.20;;;;;;7930985;28;20191;-56
2022/03/31 12:38:36;;;;;;;10.00;5.80;;;21.70;66.20;;;;;;7902007;28;20203;-54
2022/03/31 12:42:21;;;;;;;10.98;5.00;;;21.70;66.40;;;;;;7899210;28;20189;-51
2022/03/31 12:46:14;;;;;;;9.77;5.20;;;21.60;66.70;;;;;;7899203;28;20197;-53
2022/03/31 12:50:00;;;;;;;16.33;5.47;;;21.60;66.40;;;;;;7898934;28;20208;-50
2022/03/31 12:53:45;;;;;;;21.95;5.68;;;21.50;66.40;;;;;;7930571;28;21088;-51
2022/03/31 12:57:31;;;;;;;12.13;5.47;;;21.60;66.40;;;;;;7930506;28;20164;-51
2022/03/31 13:01:20;;;;;;;18.90;6.28;;;21.60;66.40;;;;;;7930278;28;20180;-50
2022/03/31 13:05:07;;;;;;;9.85;5.68;;;21.60;66.40;;;;;;7928450;28;20219;-50
2022/03/31 13:08:52;;;;;;;18.73;5.47;;;21.60;66.40;;;;;;7898248;28;20265;-50
2022/03/31 13:12:38;;;;;;;16.80;5.82;;;21.60;66.40;;;;;;7906003;28;20172;-53
2022/03/31 13:16:23;;;;;;;11.00;5.78;;;21.70;66.30;;;;;;7930007;28;20223;-51
2022/03/31 13:20:10;;;;;;;10.63;5.90;;;21.70;66.20;;;;;;7931467;28;20660;-50
2022/03/31 13:23:56;;;;;;;16.27;6.32;;;21.70;66.00;;;;;;7936340;28;20712;-52
2022/03/31 13:27:41;;;;;;;16.50;5.55;;;21.70;65.90;;;;;;7936584;28;20578;-53
2022/03/31 13:31:27;;;;;;;13.02;5.95;;;21.70;65.80;;;;;;7936063;28;20187;-53
2022/03/31 13:35:12;;;;;;;10.15;5.45;;;21.80;65.70;;;;;;7935082;28;20188;-50
2022/03/31 13:38:58;;;;;;;13.23;5.50;;;21.90;65.60;;;;;;7936279;28;20177;-51
2022/03/31 13:42:44;;;;;;;13.18;6.05;;;22.00;65.50;;;;;;7935796;28;20183;-52
2022/03/31 13:46:29;;;;;;;7.78;5.55;;;22.10;65.40;;;;;;7936468;28;20278;-50
2022/03/31 13:50:18;;;;;;;10.45;5.90;;;22.10;66.30;;;;;;7935962;28;20200;-53
2022/03/31 13:54:07;;;;;;;12.13;5.78;;;22.20;65.20;;;;;;7934118;28;20302;-54
2022/03/31 14:01:58;;;;;;;13.98;5.97;;;22.20;65.10;;;;;;7935449;28;20207;-53
2022/03/31 14:05:46;;;;;;;8.25;5.97;;;22.10;65.10;;;;;;7935367;28;20286;-54
2022/03/31 14:09:31;;;;;;;10.35;5.88;;;22.20;65.10;;;;;;7935099;28;20291;-54
2022/03/31 14:13:17;;;;;;;10.10;5.78;;;22.20;66.00;;;;;;7935319;28;20192;-53
2022/03/31 14:17:04;;;;;;;13.40;6.07;;;22.20;65.00;;;;;;7935670;28;20175;-53
2022/03/31 14:20:49;;;;;;;9.98;5.70;;;22.20;64.90;;;;;;7880144;28;20191;-53
2022/03/31 14:24:35;;;;;;;11.82;6.20;;;22.20;65.70;;;;;;7903634;28;20192;-53
2022/03/31 14:28:21;;;;;;;12.77;5.82;;;22.20;64.70;;;;;;7903813;28;20200;-52
2022/03/31 14:32:07;;;;;;;9.20;6.25;;;22.20;64.60;;;;;;7902963;28;20264;-53
2022/03/31 14:35:53;;;;;;;13.30;5.78;;;22.10;64.70;;;;;;7903461;28;20288;-54
2022/03/31 14:39:38;;;;;;;10.02;6.15;;;22.10;64.80;;;;;;7902580;28;20169;-52
2022/03/31 14:43:27;;;;;;;16.00;6.47;;;22.00;64.90;;;;;;7902942;28;20196;-52
2022/03/31 14:47:12;;;;;;;11.40;7.22;;;22.00;64.90;;;;;;7902952;28;20196;-55
2022/03/31 14:50:58;;;;;;;17.13;7.97;;;21.90;65.00;;;;;;7913357;28;20244;-56
2022/03/31 14:54:45;;;;;;;11.90;7.03;;;21.90;65.10;;;;;;7915959;28;20205;-52
2022/03/31 14:58:30;;;;;;;19.88;7.18;;;21.90;65.00;;;;;;7917445;28;20214;-53
2022/03/31 15:02:16;;;;;;;14.15;7.40;;;21.90;65.00;;;;;;7915644;28;20184;-53
2022/03/31 15:06:02;;;;;;;18.40;7.60;;;21.90;64.90;;;;;;7922752;28;20308;-52
2022/03/31 15:17:56;;;;;;;11.35;6.75;;;22.00;64.70;;;;;;7934573;28;20175;-53
2022/03/31 15:21:42;;;;;;;12.18;7.57;;;22.10;64.60;;;;;;7935840;28;20215;-53
2022/03/31 15:25:27;;;;;;;13.50;7.53;;;22.10;64.40;;;;;;7933990;28;20207;-52
2022/03/31 15:29:13;;;;;;;10.90;7.57;;;22.20;64.50;;;;;;7934950;28;20246;-53
2022/03/31 15:32:59;;;;;;;13.70;7.53;;;22.30;64.50;;;;;;7936041;28;20540;-51
2022/03/31 15:36:45;;;;;;;12.32;7.18;;;22.40;64.50;;;;;;7933697;28;20187;-52
2022/03/31 15:40:31;;;;;;;14.50;7.28;;;22.40;64.40;;;;;;7934209;28;20664;-52
2022/03/31 15:44:17;;;;;;;10.02;6.97;;;22.60;64.40;;;;;;7933816;28;20204;-53
2022/03/31 15:48:04;;;;;;;9.48;7.47;;;22.60;64.30;;;;;;7934934;28;20199;-54
2022/03/31 15:51:50;;;;;;;12.75;6.93;;;22.60;64.10;;;;;;7933235;28;20192;-54
2022/03/31 15:55:35;;;;;;;9.27;7.30;;;22.70;64.10;;;;;;7933037;28;20605;-52
2022/03/31 15:59:21;;;;;;;11.55;6.97;;;22.70;64.00;;;;;;7934534;28;20271;-55
2022/03/31 16:03:07;;;;;;;9.73;7.13;;;22.70;64.00;;;;;;7934791;28;20196;-53
2022/03/31 16:06:53;;;;;;;9.10;7.10;;;22.70;63.90;;;;;;7934652;28;20176;-53
2022/03/31 16:10:39;;;;;;;11.45;6.72;;;22.60;63.90;;;;;;7931919;28;20187;-56
2022/03/31 16:14:26;;;;;;;11.35;7.18;;;22.60;64.00;;;;;;7932209;28;20562;-54
2022/03/31 16:18:11;;;;;;;11.52;7.68;;;22.50;64.10;;;;;;7932420;28;20176;-53
2022/03/31 16:21:56;;;;;;;11.52;7.43;;;22.40;64.10;;;;;;7931830;28;20852;-53
2022/03/31 16:25:42;;;;;;;10.05;6.88;;;22.30;64.10;;;;;;7932057;28;20237;-51
2022/03/31 16:29:28;;;;;;;14.02;7.35;;;22.30;64.20;;;;;;7931706;28;20199;-53
2022/03/31 16:33:13;;;;;;;18.38;6.97;;;22.20;64.20;;;;;;7931952;28;20544;-53
2022/03/31 16:36:59;;;;;;;12.45;7.40;;;22.20;64.50;;;;;;7931798;28;20180;-52
2022/03/31 16:40:44;;;;;;;14.20;7.43;;;22.10;64.50;;;;;;7931550;28;20171;-53
2022/03/31 16:44:29;;;;;;;54.45;8.50;;;22.10;64.70;;;;;;7931776;28;20188;-54
2022/03/31 16:48:15;;;;;;;35.63;7.82;;;22.00;64.70;;;;;;7931311;28;20227;-55
2022/03/31 16:52:00;;;;;;;27.30;7.50;;;21.90;64.70;;;;;;7931199;28;20661;-53
2022/03/31 16:55:46;;;;;;;31.05;8.10;;;22.00;64.90;;;;;;7933271;28;20227;-53
2022/03/31 16:59:32;;;;;;;30.02;7.53;;;22.00;64.80;;;;;;7937424;27;20184;-54
2022/03/31 17:03:17;;;;;;;35.72;8.82;;;22.00;64.80;;;;;;7937360;28;20203;-52
2022/03/31 17:07:04;;;;;;;25.27;8.02;;;22.00;64.70;;;;;;7937316;28;20550;-54
2022/03/31 17:10:50;;;;;;;23.27;7.53;;;22.00;64.70;;;;;;7937052;28;20164;-55
2022/03/31 17:14:35;;;;;;;19.83;8.18;;;21.90;64.50;;;;;;7937571;28;20196;-53
2022/03/31 17:18:21;;;;;;;22.15;7.22;;;21.90;64.60;;;;;;7937139;28;20183;-53
2022/03/31 17:22:06;;;;;;;15.27;8.65;;;21.80;64.60;;;;;;7936748;28;20539;-53
2022/03/31 17:25:52;;;;;;;19.38;7.82;;;21.80;64.70;;;;;;7936818;28;20688;-55
2022/03/31 17:29:37;;;;;;;17.52;8.07;;;21.70;64.80;;;;;;7934910;27;20253;-52
2022/03/31 17:33:23;;;;;;;19.67;7.63;;;21.70;64.60;;;;;;7933702;28;20235;-56
2022/03/31 17:37:09;;;;;;;27.13;8.30;;;21.70;64.80;;;;;;7934824;28;20792;-53
2022/03/31 17:40:54;;;;;;;17.58;7.40;;;21.60;65.10;;;;;;7934728;28;20602;-53
2022/03/31 17:44:40;;;;;;;23.15;7.68;;;21.60;65.00;;;;;;7932994;28;20188;-55
2022/03/31 17:48:26;;;;;;;23.33;8.30;;;21.70;65.40;;;;;;7903034;28;20211;-54
2022/03/31 17:52:12;;;;;;;21.02;7.40;;;21.60;65.20;;;;;;7902850;28;20201;-54
2022/03/31 17:55:58;;;;;;;16.98;7.50;;;21.60;65.10;;;;;;7915206;28;20199;-56
2022/03/31 17:59:44;;;;;;;20.60;7.55;;;21.50;65.10;;;;;;7911813;28;20204;-56
2022/03/31 18:03:29;;;;;;;21.85;7.03;;;21.50;65.00;;;;;;7910669;28;20196;-54
2022/03/31 18:07:15;;;;;;;23.67;8.85;;;21.50;65.10;;;;;;7932214;28;20611;-56
2022/03/31 18:11:03;;;;;;;24.00;7.55;;;21.50;65.20;;;;;;7902696;28;20650;-56
2022/03/31 18:14:50;;;;;;;17.98;7.07;;;21.50;65.20;;;;;;7902992;28;20210;-56
2022/03/31 18:18:37;;;;;;;23.85;7.53;;;21.50;65.30;;;;;;7902424;28;20180;-56
2022/03/31 18:22:23;;;;;;;19.73;6.78;;;21.60;65.60;;;;;;7902805;28;20204;-54
2022/03/31 18:26:11;;;;;;;14.45;6.63;;;21.70;65.60;;;;;;7901939;28;20204;-52
2022/03/31 18:34:07;;;;;;;14.25;6.55;;;21.80;65.70;;;;;;7927479;28;20209;-54
2022/03/31 18:37:52;;;;;;;18.38;6.88;;;21.90;65.70;;;;;;7902346;28;20245;-56
2022/03/31 18:41:44;;;;;;;17.90;6.47;;;22.00;65.80;;;;;;7901623;28;20204;-54
2022/03/31 18:45:30;;;;;;;20.17;7.13;;;22.00;65.80;;;;;;7910602;28;20227;-55
2022/03/31 18:49:15;;;;;;;17.40;6.63;;;22.10;65.50;;;;;;7933012;28;20204;-54
2022/03/31 18:53:01;;;;;;;22.73;7.10;;;22.20;65.60;;;;;;7933187;28;20182;-53
2022/03/31 18:56:47;;;;;;;22.02;6.88;;;22.30;65.30;;;;;;7933014;28;20172;-56
2022/03/31 19:00:35;;;;;;;17.88;6.05;;;22.40;65.10;;;;;;7922303;28;20184;-54
2022/03/31 19:04:21;;;;;;;18.48;6.47;;;22.40;64.90;;;;;;7900897;28;20204;-54
2022/03/31 19:08:11;;;;;;;19.15;6.47;;;22.40;64.80;;;;;;7901208;28;20224;-55
2022/03/31 19:11:57;;;;;;;20.85;6.85;;;22.40;65.10;;;;;;7900927;28;20697;-53
2022/03/31 19:15:43;;;;;;;22.45;7.03;;;22.30;65.80;;;;;;7912486;28;20192;-56
2022/03/31 19:19:30;;;;;;;21.33;6.18;;;22.30;67.10;;;;;;7931631;28;20172;-54
2022/03/31 19:23:17;;;;;;;19.30;6.18;;;22.30;66.90;;;;;;7918261;28;20208;-55
2022/03/31 19:27:03;;;;;;;19.50;6.25;;;22.30;67.40;;;;;;7900151;28;20175;-53
2022/03/31 19:30:49;;;;;;;12.57;5.63;;;22.30;67.60;;;;;;7913493;28;20180;-53
2022/03/31 19:34:35;;;;;;;13.55;5.35;;;22.20;67.60;;;;;;7922561;27;20706;-53
2022/03/31 19:38:21;;;;;;;16.23;5.65;;;22.10;67.70;;;;;;7964976;27;20536;-54
2022/03/31 19:42:07;;;;;;;11.70;4.82;;;22.10;67.50;;;;;;7930137;27;20179;-53
2022/03/31 19:45:52;;;;;;;14.52;6.20;;;22.00;67.90;;;;;;7916257;28;20215;-53
2022/03/31 19:49:41;;;;;;;10.38;5.68;;;22.00;68.10;;;;;;7902823;28;20203;-53